sensor_id;sensor_type;location;lat;lon;timestamp;temperature;humidity
65044;DHT22;51617;48.158;16.464;2023-02-23T00:01:35;8.80;96.70
65044;DHT22;51617;48.158;16.464;2023-02-23T00:04:01;8.70;96.50
65044;DHT22;51617;48.158;16.464;2023-02-23T00:06:29;8.70;96.60
65044;DHT22;51617;48.158;16.464;2023-02-23T00:08:55;8.60;96.10
65044;DHT22;51617;48.158;16.464;2023-02-23T00:11:22;8.50;96.40
65044;DHT22;51617;48.158;16.464;2023-02-23T00:13:49;8.60;96.80
65044;DHT22;51617;48.158;16.464;2023-02-23T00:16:18;8.60;97.00
65044;DHT22;51617;48.158;16.464;2023-02-23T00:18:47;8.60;96.90
65044;DHT22;51617;48.158;16.464;2023-02-23T00:23:42;8.60;97.00
65044;DHT22;51617;48.158;16.464;2023-02-23T00:26:08;8.60;96.90
65044;DHT22;51617;48.158;16.464;2023-02-23T00:28:34;8.60;97.10
65044;DHT22;51617;48.158;16.464;2023-02-23T00:31:03;8.60;97.10
65044;DHT22;51617;48.158;16.464;2023-02-23T00:33:29;8.60;97.10
65044;DHT22;51617;48.158;16.464;2023-02-23T00:36:01;8.50;97.20
65044;DHT22;51617;48.158;16.464;2023-02-23T00:38:27;8.50;97.20
65044;DHT22;51617;48.158;16.464;2023-02-23T00:40:53;8.50;97.10
65044;DHT22;51617;48.158;16.464;2023-02-23T00:43:19;8.50;97.20
65044;DHT22;51617;48.158;16.464;2023-02-23T00:45:48;8.50;97.20
65044;DHT22;51617;48.158;16.464;2023-02-23T00:48:14;8.50;97.20
65044;DHT22;51617;48.158;16.464;2023-02-23T00:50:39;8.50;97.20
65044;DHT22;51617;48.158;16.464;2023-02-23T00:53:06;8.50;97.30
65044;DHT22;51617;48.158;16.464;2023-02-23T00:55:31;8.40;97.30
65044;DHT22;51617;48.158;16.464;2023-02-23T00:57:57;8.40;97.30
65044;DHT22;51617;48.158;16.464;2023-02-23T01:00:23;8.40;97.30
65044;DHT22;51617;48.158;16.464;2023-02-23T01:02:49;8.40;97.40
65044;DHT22;51617;48.158;16.464;2023-02-23T01:05:15;8.30;97.40
65044;DHT22;51617;48.158;16.464;2023-02-23T01:07:41;8.30;97.40
65044;DHT22;51617;48.158;16.464;2023-02-23T01:10:11;8.30;97.40
65044;DHT22;51617;48.158;16.464;2023-02-23T01:12:50;8.30;97.50
65044;DHT22;51617;48.158;16.464;2023-02-23T01:15:17;8.30;97.60
65044;DHT22;51617;48.158;16.464;2023-02-23T01:17:44;8.30;97.60
65044;DHT22;51617;48.158;16.464;2023-02-23T01:20:13;8.20;97.60
65044;DHT22;51617;48.158;16.464;2023-02-23T01:22:48;8.30;97.60
65044;DHT22;51617;48.158;16.464;2023-02-23T01:25:15;8.30;97.60
65044;DHT22;51617;48.158;16.464;2023-02-23T01:27:41;8.30;97.60
65044;DHT22;51617;48.158;16.464;2023-02-23T01:30:10;8.30;97.70
65044;DHT22;51617;48.158;16.464;2023-02-23T01:32:37;8.30;97.70
65044;DHT22;51617;48.158;16.464;2023-02-23T01:35:04;8.30;97.80
65044;DHT22;51617;48.158;16.464;2023-02-23T01:37:34;8.30;97.70
65044;DHT22;51617;48.158;16.464;2023-02-23T01:40:00;8.20;97.80
65044;DHT22;51617;48.158;16.464;2023-02-23T01:42:25;8.20;97.80
65044;DHT22;51617;48.158;16.464;2023-02-23T01:47:17;8.10;97.90
65044;DHT22;51617;48.158;16.464;2023-02-23T01:49:45;8.10;98.00
65044;DHT22;51617;48.158;16.464;2023-02-23T01:52:13;8.10;97.90
65044;DHT22;51617;48.158;16.464;2023-02-23T01:54:48;8.10;98.00
65044;DHT22;51617;48.158;16.464;2023-02-23T01:57:16;8.10;98.00
65044;DHT22;51617;48.158;16.464;2023-02-23T01:59:46;8.10;98.10
65044;DHT22;51617;48.158;16.464;2023-02-23T02:02:16;8.10;98.30
65044;DHT22;51617;48.158;16.464;2023-02-23T02:04:42;8.00;98.00
65044;DHT22;51617;48.158;16.464;2023-02-23T02:07:15;8.10;98.00
65044;DHT22;51617;48.158;16.464;2023-02-23T02:09:43;8.10;98.30
65044;DHT22;51617;48.158;16.464;2023-02-23T02:12:29;8.00;98.00
65044;DHT22;51617;48.158;16.464;2023-02-23T02:14:57;8.00;98.00
65044;DHT22;51617;48.158;16.464;2023-02-23T02:23:52;8.00;98.10
65044;DHT22;51617;48.158;16.464;2023-02-23T02:40:14;8.00;98.30
65044;DHT22;51617;48.158;16.464;2023-02-23T02:42:59;8.00;98.30
65044;DHT22;51617;48.158;16.464;2023-02-23T02:45:39;8.00;98.10
65044;DHT22;51617;48.158;16.464;2023-02-23T02:48:17;7.90;98.20
65044;DHT22;51617;48.158;16.464;2023-02-23T02:51:28;7.90;98.20
65044;DHT22;51617;48.158;16.464;2023-02-23T02:56:32;7.90;98.40
65044;DHT22;51617;48.158;16.464;2023-02-23T02:59:02;7.90;98.40
65044;DHT22;51617;48.158;16.464;2023-02-23T03:01:29;7.90;98.40
65044;DHT22;51617;48.158;16.464;2023-02-23T03:04:24;7.90;98.40
65044;DHT22;51617;48.158;16.464;2023-02-23T03:07:35;8.00;98.40
65044;DHT22;51617;48.158;16.464;2023-02-23T03:19:47;8.00;97.80
65044;DHT22;51617;48.158;16.464;2023-02-23T03:22:39;7.90;98.10
65044;DHT22;51617;48.158;16.464;2023-02-23T03:25:33;7.90;98.20
65044;DHT22;51617;48.158;16.464;2023-02-23T03:28:32;7.90;98.30
65044;DHT22;51617;48.158;16.464;2023-02-23T03:31:39;7.90;98.20
65044;DHT22;51617;48.158;16.464;2023-02-23T03:34:35;8.00;98.20
65044;DHT22;51617;48.158;16.464;2023-02-23T03:40:36;8.00;98.10
65044;DHT22;51617;48.158;16.464;2023-02-23T03:43:27;7.90;97.90
65044;DHT22;51617;48.158;16.464;2023-02-23T03:46:14;7.80;97.90
65044;DHT22;51617;48.158;16.464;2023-02-23T03:49:03;7.80;97.80
65044;DHT22;51617;48.158;16.464;2023-02-23T03:51:54;7.70;97.80
65044;DHT22;51617;48.158;16.464;2023-02-23T03:54:57;7.60;98.10
65044;DHT22;51617;48.158;16.464;2023-02-23T03:57:45;7.70;98.40
65044;DHT22;51617;48.158;16.464;2023-02-23T04:00:35;7.80;98.30
65044;DHT22;51617;48.158;16.464;2023-02-23T04:03:22;7.80;98.10
65044;DHT22;51617;48.158;16.464;2023-02-23T04:06:11;7.80;98.00
65044;DHT22;51617;48.158;16.464;2023-02-23T04:09:00;7.80;98.20
65044;DHT22;51617;48.158;16.464;2023-02-23T04:12:01;7.80;98.20
65044;DHT22;51617;48.158;16.464;2023-02-23T04:14:56;7.70;98.20
65044;DHT22;51617;48.158;16.464;2023-02-23T04:17:27;7.60;98.50
65044;DHT22;51617;48.158;16.464;2023-02-23T04:19:55;7.60;98.60
65044;DHT22;51617;48.158;16.464;2023-02-23T04:22:22;7.70;98.60
65044;DHT22;51617;48.158;16.464;2023-02-23T04:24:48;7.70;98.40
65044;DHT22;51617;48.158;16.464;2023-02-23T04:27:14;7.60;98.40
65044;DHT22;51617;48.158;16.464;2023-02-23T04:29:40;7.60;98.60
65044;DHT22;51617;48.158;16.464;2023-02-23T04:32:14;7.50;98.70
65044;DHT22;51617;48.158;16.464;2023-02-23T04:34:42;7.50;98.60
65044;DHT22;51617;48.158;16.464;2023-02-23T04:37:07;7.40;99.30
65044;DHT22;51617;48.158;16.464;2023-02-23T04:39:33;7.50;99.30
65044;DHT22;51617;48.158;16.464;2023-02-23T04:41:59;7.60;99.30
65044;DHT22;51617;48.158;16.464;2023-02-23T04:44:24;7.60;99.20
65044;DHT22;51617;48.158;16.464;2023-02-23T04:46:50;7.70;99.00
65044;DHT22;51617;48.158;16.464;2023-02-23T04:49:17;7.70;99.00
65044;DHT22;51617;48.158;16.464;2023-02-23T04:51:43;7.60;99.20
65044;DHT22;51617;48.158;16.464;2023-02-23T04:54:10;7.60;99.20
65044;DHT22;51617;48.158;16.464;2023-02-23T04:56:36;7.70;99.20
65044;DHT22;51617;48.158;16.464;2023-02-23T04:59:02;7.70;99.10
65044;DHT22;51617;48.158;16.464;2023-02-23T05:01:27;7.70;99.00
65044;DHT22;51617;48.158;16.464;2023-02-23T05:03:53;7.70;99.10
65044;DHT22;51617;48.158;16.464;2023-02-23T05:06:20;7.50;99.30
65044;DHT22;51617;48.158;16.464;2023-02-23T05:08:46;7.60;99.40
65044;DHT22;51617;48.158;16.464;2023-02-23T05:11:12;7.60;99.40
65044;DHT22;51617;48.158;16.464;2023-02-23T05:13:37;7.60;99.50
65044;DHT22;51617;48.158;16.464;2023-02-23T05:16:04;7.50;99.50
65044;DHT22;51617;48.158;16.464;2023-02-23T05:18:30;7.60;99.50
65044;DHT22;51617;48.158;16.464;2023-02-23T05:21:04;7.60;99.50
65044;DHT22;51617;48.158;16.464;2023-02-23T05:23:35;7.50;99.40
65044;DHT22;51617;48.158;16.464;2023-02-23T05:26:11;7.50;99.50
65044;DHT22;51617;48.158;16.464;2023-02-23T05:28:38;7.50;99.60
65044;DHT22;51617;48.158;16.464;2023-02-23T05:31:05;7.60;99.50
65044;DHT22;51617;48.158;16.464;2023-02-23T05:33:32;7.50;99.60
65044;DHT22;51617;48.158;16.464;2023-02-23T05:35:58;7.60;99.50
65044;DHT22;51617;48.158;16.464;2023-02-23T05:38:25;7.60;99.50
65044;DHT22;51617;48.158;16.464;2023-02-23T05:40:52;7.70;99.50
65044;DHT22;51617;48.158;16.464;2023-02-23T05:43:18;7.60;99.50
65044;DHT22;51617;48.158;16.464;2023-02-23T05:45:44;7.70;99.40
65044;DHT22;51617;48.158;16.464;2023-02-23T05:48:13;7.70;99.50
65044;DHT22;51617;48.158;16.464;2023-02-23T05:50:38;7.70;99.40
65044;DHT22;51617;48.158;16.464;2023-02-23T05:53:04;7.70;99.40
65044;DHT22;51617;48.158;16.464;2023-02-23T05:55:32;7.70;99.50
65044;DHT22;51617;48.158;16.464;2023-02-23T05:58:00;7.70;99.40
65044;DHT22;51617;48.158;16.464;2023-02-23T06:00:25;7.80;99.50
65044;DHT22;51617;48.158;16.464;2023-02-23T06:02:51;7.80;99.50
65044;DHT22;51617;48.158;16.464;2023-02-23T06:05:18;7.80;99.50
65044;DHT22;51617;48.158;16.464;2023-02-23T06:07:44;7.80;99.50
65044;DHT22;51617;48.158;16.464;2023-02-23T06:10:10;7.90;99.40
65044;DHT22;51617;48.158;16.464;2023-02-23T06:12:36;7.90;99.30
65044;DHT22;51617;48.158;16.464;2023-02-23T06:15:02;8.00;99.40
65044;DHT22;51617;48.158;16.464;2023-02-23T06:17:28;8.00;99.30
65044;DHT22;51617;48.158;16.464;2023-02-23T06:19:54;8.10;99.20
65044;DHT22;51617;48.158;16.464;2023-02-23T06:22:19;8.10;99.20
65044;DHT22;51617;48.158;16.464;2023-02-23T06:24:45;8.00;99.30
65044;DHT22;51617;48.158;16.464;2023-02-23T06:27:11;8.10;99.30
65044;DHT22;51617;48.158;16.464;2023-02-23T06:29:38;8.10;99.30
65044;DHT22;51617;48.158;16.464;2023-02-23T06:32:04;8.10;99.10
65044;DHT22;51617;48.158;16.464;2023-02-23T06:34:30;8.10;99.10
65044;DHT22;51617;48.158;16.464;2023-02-23T06:36:56;8.10;99.10
65044;DHT22;51617;48.158;16.464;2023-02-23T06:39:22;8.20;99.00
65044;DHT22;51617;48.158;16.464;2023-02-23T06:41:47;8.20;98.90
65044;DHT22;51617;48.158;16.464;2023-02-23T06:44:13;8.20;98.90
65044;DHT22;51617;48.158;16.464;2023-02-23T06:46:39;8.20;98.90
65044;DHT22;51617;48.158;16.464;2023-02-23T06:49:05;8.20;98.90
65044;DHT22;51617;48.158;16.464;2023-02-23T06:51:31;8.20;99.00
65044;DHT22;51617;48.158;16.464;2023-02-23T06:53:56;8.20;98.90
65044;DHT22;51617;48.158;16.464;2023-02-23T06:56:23;8.20;98.90
65044;DHT22;51617;48.158;16.464;2023-02-23T06:58:48;8.30;98.70
65044;DHT22;51617;48.158;16.464;2023-02-23T07:01:15;8.30;98.90
65044;DHT22;51617;48.158;16.464;2023-02-23T07:03:41;8.30;98.70
65044;DHT22;51617;48.158;16.464;2023-02-23T07:06:08;8.30;98.80
65044;DHT22;51617;48.158;16.464;2023-02-23T07:08:34;8.30;98.70
65044;DHT22;51617;48.158;16.464;2023-02-23T07:11:10;8.40;98.70
65044;DHT22;51617;48.158;16.464;2023-02-23T07:13:38;8.40;98.60
65044;DHT22;51617;48.158;16.464;2023-02-23T07:16:04;8.40;98.60
65044;DHT22;51617;48.158;16.464;2023-02-23T07:18:30;8.50;98.60
65044;DHT22;51617;48.158;16.464;2023-02-23T07:20:56;8.50;98.50
65044;DHT22;51617;48.158;16.464;2023-02-23T07:23:22;8.40;98.80
65044;DHT22;51617;48.158;16.464;2023-02-23T07:25:52;8.50;98.80
65044;DHT22;51617;48.158;16.464;2023-02-23T07:28:18;8.70;98.60
65044;DHT22;51617;48.158;16.464;2023-02-23T07:30:45;8.60;98.60
65044;DHT22;51617;48.158;16.464;2023-02-23T07:33:11;8.70;98.60
65044;DHT22;51617;48.158;16.464;2023-02-23T07:35:36;8.80;98.50
65044;DHT22;51617;48.158;16.464;2023-02-23T07:38:02;8.90;98.50
65044;DHT22;51617;48.158;16.464;2023-02-23T07:40:28;8.90;98.50
65044;DHT22;51617;48.158;16.464;2023-02-23T07:42:54;9.00;98.20
65044;DHT22;51617;48.158;16.464;2023-02-23T07:45:20;9.10;98.20
65044;DHT22;51617;48.158;16.464;2023-02-23T07:47:45;9.10;98.00
65044;DHT22;51617;48.158;16.464;2023-02-23T07:50:11;9.10;98.20
65044;DHT22;51617;48.158;16.464;2023-02-23T07:52:40;9.20;98.30
65044;DHT22;51617;48.158;16.464;2023-02-23T07:55:07;9.40;97.90
65044;DHT22;51617;48.158;16.464;2023-02-23T07:57:33;9.50;97.60
65044;DHT22;51617;48.158;16.464;2023-02-23T07:59:59;9.60;97.90
65044;DHT22;51617;48.158;16.464;2023-02-23T08:02:25;9.70;97.20
65044;DHT22;51617;48.158;16.464;2023-02-23T08:04:53;9.80;97.40
65044;DHT22;51617;48.158;16.464;2023-02-23T08:07:20;9.80;97.50
65044;DHT22;51617;48.158;16.464;2023-02-23T08:09:47;10.00;97.20
65044;DHT22;51617;48.158;16.464;2023-02-23T08:12:12;10.10;96.90
65044;DHT22;51617;48.158;16.464;2023-02-23T08:14:40;10.10;96.90
65044;DHT22;51617;48.158;16.464;2023-02-23T08:17:05;10.10;96.70
65044;DHT22;51617;48.158;16.464;2023-02-23T08:19:31;10.20;97.10
65044;DHT22;51617;48.158;16.464;2023-02-23T08:21:57;10.20;96.70
65044;DHT22;51617;48.158;16.464;2023-02-23T08:24:24;10.20;96.80
65044;DHT22;51617;48.158;16.464;2023-02-23T08:26:49;10.40;96.70
65044;DHT22;51617;48.158;16.464;2023-02-23T08:29:15;10.50;96.30
65044;DHT22;51617;48.158;16.464;2023-02-23T08:31:41;10.50;96.00
65044;DHT22;51617;48.158;16.464;2023-02-23T08:34:06;10.50;96.20
65044;DHT22;51617;48.158;16.464;2023-02-23T08:36:32;10.50;96.10
65044;DHT22;51617;48.158;16.464;2023-02-23T08:38:58;10.50;96.20
65044;DHT22;51617;48.158;16.464;2023-02-23T08:41:25;10.50;96.20
65044;DHT22;51617;48.158;16.464;2023-02-23T08:43:52;10.60;96.20
65044;DHT22;51617;48.158;16.464;2023-02-23T08:46:18;10.60;96.00
65044;DHT22;51617;48.158;16.464;2023-02-23T08:48:45;10.60;96.00
65044;DHT22;51617;48.158;16.464;2023-02-23T08:51:11;10.70;96.00
65044;DHT22;51617;48.158;16.464;2023-02-23T08:53:37;10.80;96.00
65044;DHT22;51617;48.158;16.464;2023-02-23T08:56:05;10.70;96.10
65044;DHT22;51617;48.158;16.464;2023-02-23T08:58:32;10.80;95.80
65044;DHT22;51617;48.158;16.464;2023-02-23T09:00:59;10.80;95.80
65044;DHT22;51617;48.158;16.464;2023-02-23T09:03:26;10.90;95.80
65044;DHT22;51617;48.158;16.464;2023-02-23T09:05:55;10.90;95.70
65044;DHT22;51617;48.158;16.464;2023-02-23T09:08:21;10.90;95.70
65044;DHT22;51617;48.158;16.464;2023-02-23T09:10:47;10.90;95.80
65044;DHT22;51617;48.158;16.464;2023-02-23T09:13:13;11.10;95.90
65044;DHT22;51617;48.158;16.464;2023-02-23T09:15:39;11.30;95.50
65044;DHT22;51617;48.158;16.464;2023-02-23T09:18:06;11.30;95.30
65044;DHT22;51617;48.158;16.464;2023-02-23T09:20:33;11.40;95.20
65044;DHT22;51617;48.158;16.464;2023-02-23T09:22:58;11.50;95.20
65044;DHT22;51617;48.158;16.464;2023-02-23T09:25:24;11.60;94.80
65044;DHT22;51617;48.158;16.464;2023-02-23T09:27:52;11.60;95.00
65044;DHT22;51617;48.158;16.464;2023-02-23T09:30:19;11.60;94.80
65044;DHT22;51617;48.158;16.464;2023-02-23T09:32:49;11.70;94.80
65044;DHT22;51617;48.158;16.464;2023-02-23T09:35:16;11.80;94.70
65044;DHT22;51617;48.158;16.464;2023-02-23T09:37:53;11.80;94.60
65044;DHT22;51617;48.158;16.464;2023-02-23T09:40:26;11.90;94.50
65044;DHT22;51617;48.158;16.464;2023-02-23T09:48:25;11.90;94.60
65044;DHT22;51617;48.158;16.464;2023-02-23T09:50:56;12.00;94.80
65044;DHT22;51617;48.158;16.464;2023-02-23T09:53:38;12.00;94.70
65044;DHT22;51617;48.158;16.464;2023-02-23T09:56:15;12.20;94.40
65044;DHT22;51617;48.158;16.464;2023-02-23T09:58:42;12.20;94.30
65044;DHT22;51617;48.158;16.464;2023-02-23T10:06:39;12.30;94.30
65044;DHT22;51617;48.158;16.464;2023-02-23T10:20:18;13.00;93.00
65044;DHT22;51617;48.158;16.464;2023-02-23T10:22:47;13.00;92.50
65044;DHT22;51617;48.158;16.464;2023-02-23T10:25:25;13.20;92.70
65044;DHT22;51617;48.158;16.464;2023-02-23T10:27:51;13.30;92.40
65044;DHT22;51617;48.158;16.464;2023-02-23T10:30:29;13.60;92.20
65044;DHT22;51617;48.158;16.464;2023-02-23T10:33:06;13.70;91.90
65044;DHT22;51617;48.158;16.464;2023-02-23T10:35:35;13.80;91.40
65044;DHT22;51617;48.158;16.464;2023-02-23T10:38:02;13.90;91.60
65044;DHT22;51617;48.158;16.464;2023-02-23T10:40:30;13.90;91.50
65044;DHT22;51617;48.158;16.464;2023-02-23T10:42:59;14.10;91.30
65044;DHT22;51617;48.158;16.464;2023-02-23T10:45:27;14.10;90.80
65044;DHT22;51617;48.158;16.464;2023-02-23T10:48:07;14.20;90.80
65044;DHT22;51617;48.158;16.464;2023-02-23T10:50:36;14.10;91.00
65044;DHT22;51617;48.158;16.464;2023-02-23T10:53:13;14.20;91.10
65044;DHT22;51617;48.158;16.464;2023-02-23T10:55:43;14.30;90.60
65044;DHT22;51617;48.158;16.464;2023-02-23T10:58:18;14.30;90.40
65044;DHT22;51617;48.158;16.464;2023-02-23T11:00:53;14.20;90.60
65044;DHT22;51617;48.158;16.464;2023-02-23T11:03:47;14.30;90.70
65044;DHT22;51617;48.158;16.464;2023-02-23T11:06:36;14.40;90.50
65044;DHT22;51617;48.158;16.464;2023-02-23T11:09:24;14.50;90.30
65044;DHT22;51617;48.158;16.464;2023-02-23T11:11:59;14.60;90.30
65044;DHT22;51617;48.158;16.464;2023-02-23T11:14:26;14.60;90.10
65044;DHT22;51617;48.158;16.464;2023-02-23T11:16:57;14.60;89.90
65044;DHT22;51617;48.158;16.464;2023-02-23T11:19:34;14.50;90.00
65044;DHT22;51617;48.158;16.464;2023-02-23T11:22:03;14.60;90.10
65044;DHT22;51617;48.158;16.464;2023-02-23T11:24:34;14.70;89.90
65044;DHT22;51617;48.158;16.464;2023-02-23T11:27:03;14.70;90.00
65044;DHT22;51617;48.158;16.464;2023-02-23T11:29:38;14.80;89.60
65044;DHT22;51617;48.158;16.464;2023-02-23T11:32:16;14.90;88.40
65044;DHT22;51617;48.158;16.464;2023-02-23T11:34:44;15.00;89.30
65044;DHT22;51617;48.158;16.464;2023-02-23T11:42:26;15.70;87.90
65044;DHT22;51617;48.158;16.464;2023-02-23T11:45:20;15.80;86.70
65044;DHT22;51617;48.158;16.464;2023-02-23T11:47:52;15.90;86.00
65044;DHT22;51617;48.158;16.464;2023-02-23T11:52:54;15.80;85.10
65044;DHT22;51617;48.158;16.464;2023-02-23T11:55:21;15.80;85.40
65044;DHT22;51617;48.158;16.464;2023-02-23T11:57:47;15.90;85.10
65044;DHT22;51617;48.158;16.464;2023-02-23T12:00:27;15.90;85.50
65044;DHT22;51617;48.158;16.464;2023-02-23T12:02:58;16.00;84.60
65044;DHT22;51617;48.158;16.464;2023-02-23T12:05:31;16.10;84.30
65044;DHT22;51617;48.158;16.464;2023-02-23T12:08:14;16.10;84.20
65044;DHT22;51617;48.158;16.464;2023-02-23T12:10:52;15.90;84.40
65044;DHT22;51617;48.158;16.464;2023-02-23T12:13:36;16.00;84.40
65044;DHT22;51617;48.158;16.464;2023-02-23T12:18:58;16.30;83.80
65044;DHT22;51617;48.158;16.464;2023-02-23T12:21:34;16.30;83.60
65044;DHT22;51617;48.158;16.464;2023-02-23T12:26:29;16.30;83.30
65044;DHT22;51617;48.158;16.464;2023-02-23T12:29:15;16.50;83.30
65044;DHT22;51617;48.158;16.464;2023-02-23T12:31:48;16.40;82.40
65044;DHT22;51617;48.158;16.464;2023-02-23T12:34:57;16.30;82.90
65044;DHT22;51617;48.158;16.464;2023-02-23T12:37:28;16.40;82.70
65044;DHT22;51617;48.158;16.464;2023-02-23T12:40:24;16.30;82.40
65044;DHT22;51617;48.158;16.464;2023-02-23T12:46:04;16.20;82.90
65044;DHT22;51617;48.158;16.464;2023-02-23T12:48:51;16.30;82.30
65044;DHT22;51617;48.158;16.464;2023-02-23T12:51:32;16.30;82.70
65044;DHT22;51617;48.158;16.464;2023-02-23T12:54:00;16.30;82.50
65044;DHT22;51617;48.158;16.464;2023-02-23T13:04:50;16.60;81.50
65044;DHT22;51617;48.158;16.464;2023-02-23T13:07:21;16.60;81.30
65044;DHT22;51617;48.158;16.464;2023-02-23T13:16:00;16.70;80.90
65044;DHT22;51617;48.158;16.464;2023-02-23T13:29:00;16.40;81.60
65044;DHT22;51617;48.158;16.464;2023-02-23T13:31:35;16.50;80.90
65044;DHT22;51617;48.158;16.464;2023-02-23T13:34:03;16.50;81.00
65044;DHT22;51617;48.158;16.464;2023-02-23T13:36:32;16.60;80.80
65044;DHT22;51617;48.158;16.464;2023-02-23T13:42:14;16.60;80.40
65044;DHT22;51617;48.158;16.464;2023-02-23T13:44:45;16.50;80.40
65044;DHT22;51617;48.158;16.464;2023-02-23T13:47:20;16.50;80.80
65044;DHT22;51617;48.158;16.464;2023-02-23T13:50:06;16.50;80.80
65044;DHT22;51617;48.158;16.464;2023-02-23T13:52:42;16.50;80.40
65044;DHT22;51617;48.158;16.464;2023-02-23T13:58:03;16.50;80.50
65044;DHT22;51617;48.158;16.464;2023-02-23T14:00:29;16.50;80.40
65044;DHT22;51617;48.158;16.464;2023-02-23T14:02:56;16.60;80.40
65044;DHT22;51617;48.158;16.464;2023-02-23T14:05:24;16.70;79.80
65044;DHT22;51617;48.158;16.464;2023-02-23T14:07:53;16.70;79.70
65044;DHT22;51617;48.158;16.464;2023-02-23T14:10:39;16.60;79.00
65044;DHT22;51617;48.158;16.464;2023-02-23T14:26:17;17.10;78.80
65044;DHT22;51617;48.158;16.464;2023-02-23T14:34:53;17.30;78.50
65044;DHT22;51617;48.158;16.464;2023-02-23T14:37:30;17.30;78.40
65044;DHT22;51617;48.158;16.464;2023-02-23T14:40:11;17.30;78.70
65044;DHT22;51617;48.158;16.464;2023-02-23T14:42:39;17.30;78.40
65044;DHT22;51617;48.158;16.464;2023-02-23T14:45:19;17.20;78.20
65044;DHT22;51617;48.158;16.464;2023-02-23T14:47:50;17.20;78.70
65044;DHT22;51617;48.158;16.464;2023-02-23T14:52:55;17.30;78.20
65044;DHT22;51617;48.158;16.464;2023-02-23T14:55:25;17.20;78.20
65044;DHT22;51617;48.158;16.464;2023-02-23T14:57:51;17.10;78.40
65044;DHT22;51617;48.158;16.464;2023-02-23T15:00:23;17.00;78.60
65044;DHT22;51617;48.158;16.464;2023-02-23T15:03:06;17.00;79.00
65044;DHT22;51617;48.158;16.464;2023-02-23T15:05:42;17.00;79.30
65044;DHT22;51617;48.158;16.464;2023-02-23T15:08:15;17.00;79.10
65044;DHT22;51617;48.158;16.464;2023-02-23T15:10:44;17.00;79.40
65044;DHT22;51617;48.158;16.464;2023-02-23T15:13:27;16.90;79.30
65044;DHT22;51617;48.158;16.464;2023-02-23T15:15:54;16.80;78.60
65044;DHT22;51617;48.158;16.464;2023-02-23T15:21:50;16.60;78.80
65044;DHT22;51617;48.158;16.464;2023-02-23T15:24:21;16.50;78.80
65044;DHT22;51617;48.158;16.464;2023-02-23T15:26:49;16.30;79.30
65044;DHT22;51617;48.158;16.464;2023-02-23T15:29:17;16.20;79.90
65044;DHT22;51617;48.158;16.464;2023-02-23T15:31:45;16.10;80.20
65044;DHT22;51617;48.158;16.464;2023-02-23T15:34:18;16.10;80.10
65044;DHT22;51617;48.158;16.464;2023-02-23T15:38:05;16.00;81.00
65044;DHT22;51617;48.158;16.464;2023-02-23T15:40:05;15.90;80.80
65044;DHT22;51617;48.158;16.464;2023-02-23T15:42:49;15.80;81.30
65044;DHT22;51617;48.158;16.464;2023-02-23T15:48:15;15.60;81.70
65044;DHT22;51617;48.158;16.464;2023-02-23T15:50:45;15.50;82.10
65044;DHT22;51617;48.158;16.464;2023-02-23T15:53:32;15.50;82.40
65044;DHT22;51617;48.158;16.464;2023-02-23T15:56:18;15.40;82.80
65044;DHT22;51617;48.158;16.464;2023-02-23T15:58:50;15.30;83.10
65044;DHT22;51617;48.158;16.464;2023-02-23T16:01:22;15.30;83.50
65044;DHT22;51617;48.158;16.464;2023-02-23T16:04:01;15.20;83.60
65044;DHT22;51617;48.158;16.464;2023-02-23T16:06:36;15.20;83.50
65044;DHT22;51617;48.158;16.464;2023-02-23T16:09:14;15.20;83.40
65044;DHT22;51617;48.158;16.464;2023-02-23T16:17:24;14.90;83.90
65044;DHT22;51617;48.158;16.464;2023-02-23T16:19:53;14.80;84.00
65044;DHT22;51617;48.158;16.464;2023-02-23T16:22:22;14.80;84.00
65044;DHT22;51617;48.158;16.464;2023-02-23T16:24:56;14.80;84.30
65044;DHT22;51617;48.158;16.464;2023-02-23T16:27:23;14.70;84.40
65044;DHT22;51617;48.158;16.464;2023-02-23T16:30:38;14.70;84.80
65044;DHT22;51617;48.158;16.464;2023-02-23T16:36:04;14.60;84.90
65044;DHT22;51617;48.158;16.464;2023-02-23T16:38:39;14.60;84.90
65044;DHT22;51617;48.158;16.464;2023-02-23T16:41:20;14.60;84.90
65044;DHT22;51617;48.158;16.464;2023-02-23T16:43:51;14.60;84.70
65044;DHT22;51617;48.158;16.464;2023-02-23T16:46:19;14.60;84.70
65044;DHT22;51617;48.158;16.464;2023-02-23T16:48:47;14.50;84.70
65044;DHT22;51617;48.158;16.464;2023-02-23T16:51:19;14.50;84.80
65044;DHT22;51617;48.158;16.464;2023-02-23T16:53:45;14.40;84.70
65044;DHT22;51617;48.158;16.464;2023-02-23T16:56:15;14.40;84.80
65044;DHT22;51617;48.158;16.464;2023-02-23T16:58:45;14.30;84.70
65044;DHT22;51617;48.158;16.464;2023-02-23T17:01:13;14.30;84.70
65044;DHT22;51617;48.158;16.464;2023-02-23T17:03:41;14.30;84.90
65044;DHT22;51617;48.158;16.464;2023-02-23T17:06:10;14.30;85.10
65044;DHT22;51617;48.158;16.464;2023-02-23T17:08:37;14.20;85.00
65044;DHT22;51617;48.158;16.464;2023-02-23T17:11:04;14.20;85.00
65044;DHT22;51617;48.158;16.464;2023-02-23T17:13:31;14.20;85.10
65044;DHT22;51617;48.158;16.464;2023-02-23T17:16:01;14.20;85.10
65044;DHT22;51617;48.158;16.464;2023-02-23T17:18:33;14.20;85.20
65044;DHT22;51617;48.158;16.464;2023-02-23T17:21:02;14.10;85.30
65044;DHT22;51617;48.158;16.464;2023-02-23T17:23:30;14.10;85.40
65044;DHT22;51617;48.158;16.464;2023-02-23T17:26:20;14.10;85.40
65044;DHT22;51617;48.158;16.464;2023-02-23T17:28:46;14.00;85.50
65044;DHT22;51617;48.158;16.464;2023-02-23T17:31:14;14.00;85.60
65044;DHT22;51617;48.158;16.464;2023-02-23T17:33:41;14.00;85.70
65044;DHT22;51617;48.158;16.464;2023-02-23T17:36:10;13.90;85.90
65044;DHT22;51617;48.158;16.464;2023-02-23T17:38:38;13.90;86.00
65044;DHT22;51617;48.158;16.464;2023-02-23T17:41:11;13.90;85.90
65044;DHT22;51617;48.158;16.464;2023-02-23T17:43:38;13.90;86.10
65044;DHT22;51617;48.158;16.464;2023-02-23T17:46:04;13.80;86.00
65044;DHT22;51617;48.158;16.464;2023-02-23T17:48:30;13.80;86.10
65044;DHT22;51617;48.158;16.464;2023-02-23T17:51:09;13.70;85.90
65044;DHT22;51617;48.158;16.464;2023-02-23T17:53:37;13.70;85.90
65044;DHT22;51617;48.158;16.464;2023-02-23T17:56:05;13.60;86.00
65044;DHT22;51617;48.158;16.464;2023-02-23T17:58:31;13.60;85.90
65044;DHT22;51617;48.158;16.464;2023-02-23T18:01:00;13.60;86.20
65044;DHT22;51617;48.158;16.464;2023-02-23T18:03:27;13.60;86.10
65044;DHT22;51617;48.158;16.464;2023-02-23T18:06:07;13.60;85.80
65044;DHT22;51617;48.158;16.464;2023-02-23T18:08:34;13.60;85.60
65044;DHT22;51617;48.158;16.464;2023-02-23T18:11:01;13.60;85.60
65044;DHT22;51617;48.158;16.464;2023-02-23T18:13:28;13.60;85.60
65044;DHT22;51617;48.158;16.464;2023-02-23T18:15:58;13.60;85.60